createdAt,value
2017-08-08T00:02:24.885Z,98574.63
2017-08-08T00:04:52.370Z,98577.24
2017-08-08T00:07:19.821Z,98578.17
2017-08-08T00:09:47.307Z,98574.80
2017-08-08T00:12:14.800Z,98573.95
2017-08-08T00:14:42.295Z,98575.14
2017-08-08T00:17:09.782Z,98572.63
2017-08-08T00:19:37.221Z,98568.92
2017-08-08T00:22:04.708Z,98562.06
2017-08-08T00:24:32.152Z,98558.17
2017-08-08T00:26:59.638Z,98550.94
2017-08-08T00:29:27.102Z,98545.52
2017-08-08T00:31:54.582Z,98535.44
2017-08-08T00:34:22.046Z,98529.31
2017-08-08T00:36:49.533Z,98520.69
2017-08-08T00:39:16.990Z,98523.11
2017-08-08T00:41:44.437Z,98514.09
2017-08-08T00:44:11.907Z,98511.45
2017-08-08T00:46:39.394Z,98525.66
2017-08-08T00:49:06.849Z,98523.16
2017-08-08T00:51:34.334Z,98518.79
2017-08-08T00:54:01.817Z,98517.14
2017-08-08T00:56:29.273Z,98514.16
2017-08-08T00:58:56.765Z,98515.16
2017-08-08T01:01:24.238Z,98514.92
2017-08-08T01:03:51.721Z,98508.03
2017-08-08T01:06:19.186Z,98505.98
2017-08-08T01:08:46.640Z,98500.37
2017-08-08T01:11:14.142Z,98492.94
2017-08-08T01:13:41.596Z,98494.57
2017-08-08T01:16:09.070Z,98503.95
2017-08-08T01:18:36.550Z,98496.80
2017-08-08T01:21:04.067Z,98485.78
2017-08-08T01:23:31.524Z,98474.95
2017-08-08T01:25:59.011Z,98479.64
2017-08-08T01:28:26.465Z,98477.73
2017-08-08T01:30:53.947Z,98479.63
2017-08-08T01:33:21.406Z,98477.94
2017-08-08T01:35:48.895Z,98469.70
2017-08-08T01:38:16.370Z,98470.78
2017-08-08T01:40:43.824Z,98471.88
2017-08-08T01:43:11.331Z,98473.17
2017-08-08T01:45:38.794Z,98473.02
2017-08-08T01:48:06.282Z,98465.38
2017-08-08T01:50:33.730Z,98458.53
2017-08-08T01:53:01.210Z,98440.66
2017-08-08T01:55:28.667Z,98424.57
2017-08-08T01:57:56.137Z,98417.08
2017-08-08T02:00:23.615Z,98423.33
2017-08-08T02:02:51.085Z,98428.64
2017-08-08T02:05:18.578Z,98381.68
2017-08-08T02:07:46.050Z,98420.86
2017-08-08T02:10:13.536Z,98418.02
2017-08-08T02:12:40.988Z,98419.42
2017-08-08T02:15:08.474Z,98423.99
2017-08-08T02:17:35.942Z,98419.61
2017-08-08T02:20:03.447Z,98421.60
2017-08-08T02:22:30.922Z,98427.36
2017-08-08T02:24:58.378Z,98427.41
2017-08-08T02:27:25.872Z,98414.28
2017-08-08T02:29:53.313Z,98408.50
2017-08-08T02:32:20.803Z,98377.16
2017-08-08T02:34:48.283Z,98388.54
2017-08-08T02:37:15.771Z,98396.08
2017-08-08T02:39:43.233Z,98398.88
2017-08-08T02:42:10.702Z,98388.16
2017-08-08T02:47:11.997Z,98374.80
2017-08-08T02:49:39.455Z,98362.64
2017-08-08T02:52:06.905Z,98356.70
2017-08-08T02:54:34.392Z,98356.11
2017-08-08T02:57:01.869Z,98349.20
2017-08-08T02:59:29.379Z,98352.38
2017-08-08T03:01:56.888Z,98354.72
2017-08-08T03:04:24.349Z,98348.88
2017-08-08T03:06:51.818Z,98342.69
2017-08-08T03:09:19.285Z,98326.59
2017-08-08T03:11:46.767Z,98328.55
2017-08-08T03:14:14.224Z,98333.58
2017-08-08T03:16:41.723Z,98339.56
2017-08-08T03:19:09.176Z,98332.46
2017-08-08T03:21:36.656Z,98337.10
2017-08-08T03:24:04.131Z,98339.05
2017-08-08T03:26:31.635Z,98337.66
2017-08-08T03:28:59.106Z,98335.32
2017-08-08T03:31:26.602Z,98325.94
2017-08-08T03:33:54.065Z,98313.22
2017-08-08T03:36:21.533Z,98311.97
2017-08-08T03:38:49.016Z,98314.26
2017-08-08T03:41:16.502Z,98317.49
2017-08-08T03:43:43.973Z,98304.94
2017-08-08T03:46:11.449Z,98304.33
2017-08-08T03:48:38.942Z,98303.01
2017-08-08T03:51:06.384Z,98290.34
2017-08-08T03:53:33.923Z,98282.17
2017-08-08T03:56:01.436Z,98278.89
2017-08-08T03:58:28.906Z,98277.84
2017-08-08T04:00:56.387Z,98274.96
2017-08-08T04:03:23.872Z,98282.77
2017-08-08T04:05:51.368Z,98286.45
2017-08-08T04:08:18.915Z,98295.40
2017-08-08T04:10:46.416Z,98297.91
2017-08-08T04:13:13.866Z,98310.36
2017-08-08T04:15:41.357Z,98314.70
2017-08-08T04:18:08.827Z,98310.80
2017-08-08T04:20:36.327Z,98315.34
2017-08-08T04:23:03.799Z,98320.37
2017-08-08T04:25:31.347Z,98312.38
2017-08-08T04:27:58.794Z,98314.02
2017-08-08T04:30:26.274Z,98308.36
2017-08-08T04:32:53.732Z,98317.24
2017-08-08T04:35:21.247Z,98311.47
2017-08-08T04:37:48.732Z,98308.29
2017-08-08T04:40:16.208Z,98304.82
2017-08-08T04:42:43.711Z,98308.61
2017-08-08T04:45:11.165Z,98309.34
2017-08-08T04:47:38.647Z,98302.34
2017-08-08T04:50:06.104Z,98293.72
2017-08-08T04:52:33.597Z,98305.27
2017-08-08T04:55:01.051Z,98308.39
2017-08-08T04:57:28.538Z,98310.81
2017-08-08T04:59:56.036Z,98309.91
2017-08-08T05:02:23.515Z,98301.59
2017-08-08T05:04:51.002Z,98310.23
2017-08-08T05:07:18.802Z,98308.45
2017-08-08T05:09:46.278Z,98297.66
2017-08-08T05:12:13.747Z,98304.74
2017-08-08T05:14:41.252Z,98315.48
2017-08-08T05:17:08.714Z,98320.39
2017-08-08T05:19:36.195Z,98321.95
2017-08-08T05:22:03.662Z,98323.73
2017-08-08T05:24:31.164Z,98329.04
2017-08-08T05:26:58.671Z,98328.14
2017-08-08T05:29:26.141Z,98321.05
2017-08-08T05:31:53.614Z,98318.03
2017-08-08T05:34:21.095Z,98311.39
2017-08-08T05:36:48.606Z,98314.34
2017-08-08T05:39:16.085Z,98319.70
2017-08-08T05:41:43.586Z,98320.55
2017-08-08T05:44:11.697Z,98327.56
2017-08-08T05:46:39.153Z,98324.88
2017-08-08T05:49:07.223Z,98330.30
2017-08-08T05:51:35.603Z,98339.52
2017-08-08T05:54:03.122Z,98339.00
2017-08-08T05:56:30.599Z,98329.31
2017-08-08T05:58:58.094Z,98328.56
2017-08-08T06:01:25.644Z,98332.80
2017-08-08T06:03:53.600Z,98335.06
2017-08-08T06:06:21.087Z,98329.14
2017-08-08T06:08:48.576Z,98325.41
2017-08-08T06:11:16.039Z,98324.91
2017-08-08T06:13:43.554Z,98317.52
2017-08-08T06:16:11.055Z,98315.96
2017-08-08T06:18:38.555Z,98321.00
2017-08-08T06:21:06.076Z,98320.47
2017-08-08T06:23:33.544Z,98319.50
2017-08-08T06:26:01.017Z,98311.50
2017-08-08T06:28:28.463Z,98311.39
2017-08-08T06:30:55.959Z,98309.98
2017-08-08T06:33:23.459Z,98313.48
2017-08-08T06:35:50.942Z,98312.08
2017-08-08T06:38:18.428Z,98311.60
2017-08-08T06:40:45.877Z,98312.23
2017-08-08T06:43:14.577Z,98314.58
2017-08-08T06:45:42.049Z,98320.89
2017-08-08T06:48:09.594Z,98323.02
2017-08-08T06:50:37.079Z,98330.13
2017-08-08T06:53:04.569Z,98341.31
2017-08-08T06:55:32.032Z,98345.49
2017-08-08T06:57:59.543Z,98334.83
2017-08-08T07:00:27.007Z,98341.61
2017-08-08T07:02:54.518Z,98346.02
2017-08-08T07:05:22.015Z,98358.15
2017-08-08T07:07:49.522Z,98364.04
2017-08-08T07:10:17.091Z,98373.25
2017-08-08T07:12:44.562Z,98373.67
2017-08-08T07:15:12.065Z,98380.59
2017-08-08T07:17:39.568Z,98373.80
2017-08-08T07:20:07.102Z,98381.91
2017-08-08T07:22:34.762Z,98375.17
2017-08-08T07:25:02.258Z,98370.39
2017-08-08T07:27:29.735Z,98371.13
2017-08-08T07:29:57.763Z,98373.83
2017-08-08T07:32:25.366Z,98374.58
2017-08-08T07:34:52.898Z,98380.02
2017-08-08T07:37:20.406Z,98381.81
2017-08-08T07:39:48.093Z,98383.39
2017-08-08T07:42:15.658Z,98374.83
2017-08-08T07:44:43.165Z,98385.25
2017-08-08T07:47:11.652Z,98384.50
2017-08-08T07:49:39.754Z,98375.09
2017-08-08T07:52:07.250Z,98381.95
2017-08-08T07:54:34.738Z,98375.91
2017-08-08T07:57:02.238Z,98374.88
2017-08-08T07:59:30.555Z,98374.36
2017-08-08T08:01:58.055Z,98371.55
2017-08-08T08:04:25.591Z,98380.73
2017-08-08T08:06:53.079Z,98376.61
2017-08-08T08:09:20.688Z,98380.87
2017-08-08T08:11:48.201Z,98381.31
2017-08-08T08:14:15.715Z,98381.17
2017-08-08T08:16:44.046Z,98381.04
2017-08-08T08:19:11.571Z,98386.94
2017-08-08T08:21:39.080Z,98379.14
2017-08-08T08:24:06.554Z,98379.63
2017-08-08T08:26:34.059Z,98390.05
2017-08-08T08:29:01.623Z,98375.35
2017-08-08T08:31:29.952Z,98395.27
2017-08-08T08:33:57.461Z,98389.83
2017-08-08T08:36:25.022Z,98397.88
2017-08-08T08:38:52.615Z,98401.50
2017-08-08T08:41:20.081Z,98417.55
2017-08-08T08:43:47.569Z,98437.69
2017-08-08T08:46:15.077Z,98438.08
2017-08-08T08:48:42.607Z,98431.22
2017-08-08T08:51:10.067Z,98418.37
2017-08-08T08:53:37.576Z,98422.52
2017-08-08T08:56:05.041Z,98399.34
2017-08-08T08:58:32.542Z,98399.61
2017-08-08T09:01:00.011Z,98420.55
2017-08-08T09:03:27.566Z,98422.73
2017-08-08T09:05:55.075Z,98410.83
2017-08-08T09:08:22.634Z,98404.76
2017-08-08T09:10:50.129Z,98396.52
2017-08-08T09:13:18.860Z,98398.81
2017-08-08T09:15:46.321Z,98420.63
2017-08-08T09:18:13.883Z,98422.91
2017-08-08T09:20:41.366Z,98419.22
2017-08-08T09:23:08.869Z,98406.31
2017-08-08T09:25:36.375Z,98393.63
2017-08-08T09:28:03.876Z,98393.73
2017-08-08T09:30:32.264Z,98375.92
2017-08-08T09:32:59.766Z,98405.52
2017-08-08T09:35:27.241Z,98410.11
2017-08-08T09:37:54.731Z,98411.67
2017-08-08T09:40:22.210Z,98414.95
2017-08-08T09:42:49.733Z,98397.86
2017-08-08T09:45:17.193Z,98394.66
2017-08-08T09:47:44.683Z,98391.88
2017-08-08T09:50:12.173Z,98398.81
2017-08-08T09:52:40.380Z,98408.05
2017-08-08T09:55:07.852Z,98403.48
2017-08-08T09:57:35.374Z,98390.84
2017-08-08T10:00:02.870Z,98369.63
2017-08-08T10:02:30.377Z,98389.50
2017-08-08T10:04:57.944Z,98380.89
2017-08-08T10:07:25.408Z,98385.84
2017-08-08T10:09:52.895Z,98388.98
2017-08-08T10:12:20.395Z,98384.00
2017-08-08T10:14:47.837Z,98374.92
2017-08-08T10:17:15.803Z,98375.58
2017-08-08T10:19:43.306Z,98373.64
2017-08-08T10:22:10.792Z,98363.02
2017-08-08T10:24:38.265Z,98360.21
2017-08-08T10:27:05.743Z,98364.30
2017-08-08T10:29:33.558Z,98373.82
2017-08-08T10:32:01.043Z,98386.20
2017-08-08T10:34:28.510Z,98378.53
2017-08-08T10:36:56.007Z,98373.16
2017-08-08T10:39:24.006Z,98377.81
2017-08-08T10:41:51.486Z,98386.01
2017-08-08T10:44:19.014Z,98390.45
2017-08-08T10:46:46.509Z,98379.05
2017-08-08T10:49:13.978Z,98332.61
2017-08-08T10:51:41.493Z,98381.50
2017-08-08T10:54:08.990Z,98375.39
2017-08-08T10:56:36.509Z,98381.55
2017-08-08T10:59:04.362Z,98389.39
2017-08-08T11:01:31.856Z,98380.23
2017-08-08T11:03:59.362Z,98383.71
2017-08-08T11:06:26.945Z,98383.64
2017-08-08T11:08:54.452Z,98381.47
2017-08-08T11:11:23.525Z,98376.31
2017-08-08T11:13:50.982Z,98370.83
2017-08-08T11:16:18.623Z,98367.15
2017-08-08T11:18:46.097Z,98370.91
2017-08-08T11:21:13.565Z,98374.42
2017-08-08T11:23:41.370Z,98372.19
2017-08-08T11:26:08.815Z,98379.42
2017-08-08T11:28:36.317Z,98394.78
2017-08-08T11:31:03.843Z,98407.69
2017-08-08T11:33:31.425Z,98417.98
2017-08-08T11:35:58.930Z,98423.48
2017-08-08T11:38:27.156Z,98417.94
2017-08-08T11:40:54.681Z,98415.22
2017-08-08T11:43:22.133Z,98414.55
2017-08-08T11:45:49.704Z,98412.62
2017-08-08T11:48:17.165Z,98407.80
2017-08-08T11:50:44.653Z,98405.80
2017-08-08T11:53:12.108Z,98397.61
2017-08-08T11:55:39.596Z,98380.77
2017-08-08T11:58:07.981Z,98371.59
2017-08-08T12:00:35.459Z,98375.20
2017-08-08T12:03:03.758Z,98378.31
2017-08-08T12:05:31.263Z,98350.63
2017-08-08T12:07:58.734Z,98312.30
2017-08-08T12:10:26.225Z,98268.25
2017-08-08T12:12:53.722Z,98268.09
2017-08-08T12:15:21.205Z,98278.91
2017-08-08T12:17:48.698Z,98268.84
2017-08-08T12:20:16.175Z,98288.72
2017-08-08T12:22:43.728Z,98295.09
2017-08-08T12:25:11.193Z,98292.51
2017-08-08T12:27:39.631Z,98303.55
2017-08-08T12:30:07.165Z,98354.52
2017-08-08T12:32:34.725Z,98359.39
2017-08-08T12:35:02.186Z,98366.65
2017-08-08T12:37:29.706Z,98360.27
2017-08-08T12:39:57.165Z,98362.48
2017-08-08T12:42:25.562Z,98361.58
2017-08-08T12:44:53.048Z,98376.11
2017-08-08T12:47:20.630Z,98380.48
2017-08-08T12:49:48.132Z,98383.59
2017-08-08T12:52:15.639Z,98391.61
2017-08-08T12:54:43.097Z,98402.63
2017-08-08T12:57:10.601Z,98399.64
2017-08-08T12:59:38.082Z,98422.75
2017-08-08T13:02:05.631Z,98430.15
2017-08-08T13:04:33.141Z,98437.55
2017-08-08T13:07:00.643Z,98440.44
2017-08-08T13:09:29.006Z,98430.42
2017-08-08T13:11:56.969Z,98435.67
2017-08-08T13:14:24.470Z,98442.97
2017-08-08T13:16:52.008Z,98454.27
2017-08-08T13:19:19.509Z,98458.95
2017-08-08T13:21:47.010Z,98461.52
2017-08-08T13:24:14.681Z,98460.19
2017-08-08T13:26:42.195Z,98463.51
2017-08-08T13:29:09.722Z,98452.78
2017-08-08T13:31:37.371Z,98452.97
2017-08-08T13:34:05.177Z,98450.48
2017-08-08T13:36:32.658Z,98442.59
2017-08-08T13:39:00.159Z,98437.56
2017-08-08T13:41:27.635Z,98436.14
2017-08-08T13:43:55.124Z,98446.73
2017-08-08T13:46:22.594Z,98447.14
2017-08-08T13:48:50.115Z,98448.20
2017-08-08T13:51:17.603Z,98453.47
2017-08-08T13:53:45.136Z,98452.77
2017-08-08T13:56:12.644Z,98451.64
2017-08-08T13:58:40.202Z,98442.94
2017-08-08T14:01:07.677Z,98453.45
2017-08-08T14:03:36.069Z,98464.02
2017-08-08T14:06:03.581Z,98446.27
2017-08-08T14:08:31.066Z,98456.46
2017-08-08T14:10:58.592Z,98468.55
2017-08-08T14:13:26.550Z,98464.56
2017-08-08T14:15:54.996Z,98456.14
2017-08-08T14:18:23.242Z,98462.91
2017-08-08T14:20:50.782Z,98451.97
2017-08-08T14:23:18.231Z,98453.34
2017-08-08T14:25:45.765Z,98442.41
2017-08-08T14:28:13.284Z,98442.45
2017-08-08T14:30:40.749Z,98444.69
2017-08-08T14:33:08.224Z,98439.34
2017-08-08T14:35:35.746Z,98437.60
2017-08-08T14:38:03.960Z,98428.75
2017-08-08T14:40:31.616Z,98427.59
2017-08-08T14:42:59.119Z,98427.30
2017-08-08T14:45:26.587Z,98427.60
2017-08-08T14:47:54.091Z,98435.31
2017-08-08T14:50:22.174Z,98426.05
2017-08-08T14:52:50.452Z,98417.13
2017-08-08T14:55:18.027Z,98412.44
2017-08-08T14:57:45.571Z,98424.06
2017-08-08T15:00:13.199Z,98431.94
2017-08-08T15:02:40.671Z,98435.23
2017-08-08T15:05:08.213Z,98444.50
2017-08-08T15:07:51.306Z,98462.36
2017-08-08T15:10:24.213Z,98450.39
2017-08-08T15:12:51.808Z,98457.84
2017-08-08T15:15:19.735Z,98453.37
2017-08-08T15:17:47.242Z,98457.66
2017-08-08T15:20:14.754Z,98463.94
2017-08-08T15:22:42.259Z,98465.61
2017-08-08T15:25:09.743Z,98450.69
2017-08-08T15:27:37.223Z,98441.49
2017-08-08T15:30:05.626Z,98451.20
2017-08-08T15:32:33.187Z,98454.94
2017-08-08T15:35:01.243Z,98457.82
2017-08-08T15:37:28.742Z,98447.51
2017-08-08T15:39:56.226Z,98457.14
2017-08-08T15:42:23.822Z,98463.11
2017-08-08T15:44:51.285Z,98454.89
2017-08-08T15:47:18.755Z,98448.17
2017-08-08T15:49:46.802Z,98470.34
2017-08-08T15:52:14.250Z,98461.39
2017-08-08T15:54:41.758Z,98455.83
2017-08-08T15:57:09.223Z,98461.06
2017-08-08T15:59:36.744Z,98472.16
2017-08-08T16:02:04.381Z,98463.85
2017-08-08T16:04:31.920Z,98459.81
2017-08-08T16:06:59.372Z,98469.63
2017-08-08T16:09:26.887Z,98473.12
2017-08-08T16:11:54.366Z,98473.83
2017-08-08T16:14:21.921Z,98470.56
2017-08-08T16:16:49.407Z,98465.09
2017-08-08T16:19:16.918Z,98473.89
2017-08-08T16:21:44.524Z,98469.67
2017-08-08T16:24:12.017Z,98473.17
2017-08-08T16:26:39.514Z,98462.61
2017-08-08T16:29:07.023Z,98451.53
2017-08-08T16:31:34.642Z,98464.83
2017-08-08T16:34:02.161Z,98462.45
2017-08-08T16:36:29.852Z,98483.77
2017-08-08T16:38:57.408Z,98469.95
2017-08-08T16:41:24.861Z,98467.84
2017-08-08T16:43:52.352Z,98476.45
2017-08-08T16:46:19.850Z,98481.82
2017-08-08T16:48:48.025Z,98486.13
2017-08-08T16:51:15.544Z,98478.78
2017-08-08T16:53:43.097Z,98489.05
2017-08-08T16:56:10.588Z,98472.04
2017-08-08T16:58:38.724Z,98471.63
2017-08-08T17:01:06.175Z,98474.88
2017-08-08T17:03:33.691Z,98480.04
2017-08-08T17:06:01.170Z,98480.66
2017-08-08T17:08:28.716Z,98477.20
2017-08-08T17:10:56.222Z,98466.73
2017-08-08T17:13:23.695Z,98481.25
2017-08-08T17:15:51.205Z,98489.21
2017-08-08T17:18:18.658Z,98473.10
2017-08-08T17:20:46.151Z,98470.98
2017-08-08T17:23:13.617Z,98478.37
2017-08-08T17:25:41.108Z,98486.56
2017-08-08T17:28:08.590Z,98493.45
2017-08-08T17:30:36.697Z,98494.02
2017-08-08T17:33:04.153Z,98484.61
2017-08-08T17:35:31.716Z,98490.34
2017-08-08T17:37:59.213Z,98490.70
2017-08-08T17:40:26.669Z,98480.44
2017-08-08T17:42:56.949Z,98504.16
2017-08-08T17:45:24.451Z,98513.00
2017-08-08T17:47:51.963Z,98497.02
2017-08-08T17:50:19.423Z,98509.14
2017-08-08T17:52:46.938Z,98522.74
2017-08-08T17:55:16.027Z,98529.07
2017-08-08T17:57:43.525Z,98529.86
2017-08-08T18:00:11.083Z,98528.94
2017-08-08T18:02:38.587Z,98526.08
2017-08-08T18:05:06.087Z,98528.63
2017-08-08T18:07:33.559Z,98536.52
2017-08-08T18:10:01.032Z,98534.55
2017-08-08T18:12:28.490Z,98551.38
2017-08-08T18:14:55.984Z,98552.11
2017-08-08T18:17:23.454Z,98564.50
2017-08-08T18:19:50.943Z,98560.03
2017-08-08T18:22:18.407Z,98564.53
2017-08-08T18:24:45.897Z,98566.93
2017-08-08T18:27:13.355Z,98565.52
2017-08-08T18:29:40.811Z,98586.09
2017-08-08T18:32:08.322Z,98591.31
2017-08-08T18:34:35.805Z,98584.00
2017-08-08T18:37:03.293Z,98598.27
2017-08-08T18:39:31.389Z,98589.78
2017-08-08T18:41:58.924Z,98603.81
2017-08-08T18:44:26.409Z,98591.81
2017-08-08T18:46:53.878Z,98596.22
2017-08-08T18:49:21.381Z,98595.80
2017-08-08T18:51:49.610Z,98583.34
2017-08-08T18:54:17.124Z,98581.73
2017-08-08T18:56:44.650Z,98585.22
2017-08-08T18:59:12.147Z,98589.55
2017-08-08T19:01:39.597Z,98593.77
2017-08-08T19:04:07.131Z,98602.97
2017-08-08T19:06:34.647Z,98606.58
2017-08-08T19:09:02.171Z,98595.34
2017-08-08T19:11:29.656Z,98589.85
2017-08-08T19:13:57.184Z,98595.64
2017-08-08T19:16:24.694Z,98581.36
2017-08-08T19:18:52.195Z,98589.38
2017-08-08T19:21:19.749Z,98580.77
2017-08-08T19:23:47.272Z,98573.30
2017-08-08T19:26:14.741Z,98574.13
2017-08-08T19:28:42.225Z,98585.09
2017-08-08T19:31:09.742Z,98619.70
2017-08-08T19:33:37.218Z,98600.95
2017-08-08T19:36:04.731Z,98628.70
2017-08-08T19:38:32.236Z,98637.03
2017-08-08T19:40:59.707Z,98657.05
2017-08-08T19:43:27.231Z,98658.63
2017-08-08T19:45:54.702Z,98648.14
2017-08-08T19:48:22.201Z,98663.37
2017-08-08T19:50:49.676Z,98672.23
2017-08-08T19:53:17.174Z,98689.05
2017-08-08T19:55:44.688Z,98702.92
2017-08-08T19:58:12.250Z,98702.44
2017-08-08T20:00:39.779Z,98699.83
2017-08-08T20:03:07.275Z,98716.02
2017-08-08T20:05:34.752Z,98701.87
2017-08-08T20:08:02.232Z,98709.40
2017-08-08T20:10:29.747Z,98705.72
2017-08-08T20:12:57.238Z,98707.30
2017-08-08T20:15:24.729Z,98718.78
2017-08-08T20:17:52.198Z,98714.23
2017-08-08T20:20:19.709Z,98712.80
2017-08-08T20:22:47.210Z,98725.18
2017-08-08T20:25:14.730Z,98705.10
2017-08-08T20:27:42.187Z,98735.70
2017-08-08T20:30:09.691Z,98744.89
2017-08-08T20:32:37.153Z,98747.06
2017-08-08T20:35:04.652Z,98746.31
2017-08-08T20:37:32.134Z,98742.02
2017-08-08T20:39:59.627Z,98749.58
2017-08-08T20:42:27.127Z,98745.19
2017-08-08T20:44:54.624Z,98743.40
2017-08-08T20:47:22.081Z,98742.38
2017-08-08T20:49:49.605Z,98736.86
2017-08-08T20:52:17.069Z,98739.39
2017-08-08T20:54:44.597Z,98746.28
2017-08-08T20:57:12.105Z,98742.66
2017-08-08T20:59:39.613Z,98734.91
2017-08-08T21:02:07.071Z,98733.27
2017-08-08T21:04:34.565Z,98729.19
2017-08-08T21:07:02.050Z,98713.02
2017-08-08T21:09:29.560Z,98740.66
2017-08-08T21:11:57.134Z,98747.55
2017-08-08T21:14:24.714Z,98753.18
2017-08-08T21:16:52.234Z,98745.66
2017-08-08T21:19:21.582Z,98751.63
2017-08-08T21:21:49.096Z,98750.25
2017-08-08T21:24:16.632Z,98748.64
2017-08-08T21:26:44.101Z,98742.55
2017-08-08T21:29:11.594Z,98743.80
2017-08-08T21:31:39.068Z,98739.53
2017-08-08T21:34:06.567Z,98743.98
2017-08-08T21:36:34.030Z,98744.86
2017-08-08T21:39:01.533Z,98742.02
2017-08-08T21:41:29.059Z,98741.95
2017-08-08T21:43:56.573Z,98750.69
2017-08-08T21:46:24.063Z,98752.53
2017-08-08T21:48:51.527Z,98754.52
2017-08-08T21:51:19.004Z,98756.88
2017-08-08T21:53:46.460Z,98762.46
2017-08-08T21:56:13.953Z,98759.39
2017-08-08T21:58:41.448Z,98758.34
2017-08-08T22:01:08.898Z,98754.34
2017-08-08T22:03:36.394Z,98751.25
2017-08-08T22:06:03.890Z,98758.64
2017-08-08T22:08:31.377Z,98766.29
2017-08-08T22:10:58.862Z,98770.17
2017-08-08T22:13:26.342Z,98771.45
2017-08-08T22:15:53.803Z,98777.75
2017-08-08T22:18:21.310Z,98779.03
2017-08-08T22:20:48.760Z,98789.40
2017-08-08T22:23:16.241Z,98781.45
2017-08-08T22:25:43.720Z,98784.14
2017-08-08T22:28:11.338Z,98777.98
2017-08-08T22:30:38.796Z,98786.47
2017-08-08T22:33:06.276Z,98783.73
2017-08-08T22:35:33.740Z,98793.89
2017-08-08T22:38:01.219Z,98789.24
2017-08-08T22:40:28.678Z,98788.16
2017-08-08T22:42:56.156Z,98784.61
2017-08-08T22:45:23.610Z,98786.34
2017-08-08T22:47:51.087Z,98790.28
2017-08-08T22:50:18.555Z,98794.77
2017-08-08T22:52:46.979Z,98801.28
2017-08-08T22:55:14.493Z,98792.63
2017-08-08T22:57:41.945Z,98793.03
2017-08-08T23:00:09.448Z,98785.09
2017-08-08T23:02:36.909Z,98782.41
2017-08-08T23:05:04.449Z,98800.26
2017-08-08T23:07:31.937Z,98795.38
2017-08-08T23:09:59.426Z,98798.98
2017-08-08T23:12:26.919Z,98806.47
2017-08-08T23:14:54.382Z,98812.28
2017-08-08T23:17:21.873Z,98814.64
2017-08-08T23:19:49.336Z,98811.81
2017-08-08T23:22:16.874Z,98810.02
2017-08-08T23:24:44.397Z,98815.11
2017-08-08T23:27:11.891Z,98827.39
2017-08-08T23:29:39.359Z,98822.56
2017-08-08T23:32:06.855Z,98823.48
2017-08-08T23:34:34.363Z,98821.38
2017-08-08T23:37:02.144Z,98818.63
2017-08-08T23:39:29.652Z,98814.41
2017-08-08T23:41:57.108Z,98811.75
2017-08-08T23:44:24.625Z,98812.28
2017-08-08T23:46:52.105Z,98806.87
2017-08-08T23:49:20.596Z,98809.14
2017-08-08T23:51:48.077Z,98803.95
2017-08-08T23:54:15.562Z,98805.45
2017-08-08T23:56:43.050Z,98810.55
2017-08-08T23:59:10.525Z,98803.59
